Time;durP1;ratioP1;P1;durP2;ratioP2;P2;SDS_P1;SDS_P2;PMS_P1;PMS_P2;Temp;Humidity;BMP_temperature;BMP_pressure;BME280_temperature;BME280_humidity;BME280_pressure;Samples;Min_cycle;Max_cycle;Signal;HPM_P1;HPM_P2
2022/07/30 00:00:34;;;;;;;;;6.67;4.67;;;;;27.17;34.78;101604.88;5019409;28;45441;-68
2022/07/30 00:02:59;;;;;;;;;6.00;6.00;;;;;27.20;35.42;101603.53;5020006;28;45605;-68
2022/07/30 00:05:25;;;;;;;;;5.00;5.00;;;;;27.14;35.12;101608.13;5015666;28;47616;-68
2022/07/30 00:07:50;;;;;;;;;7.33;7.33;;;;;27.03;36.44;101609.78;5017270;28;45232;-68
2022/07/30 00:10:15;;;;;;;;;7.33;7.33;;;;;26.96;35.59;101610.97;5016241;28;45319;-68
2022/07/30 00:12:41;;;;;;;;;7.00;7.00;;;;;26.94;36.42;101614.00;5019141;28;45398;-68
2022/07/30 00:15:07;;;;;;;;;6.00;6.00;;;;;26.99;36.08;101607.72;5015839;28;46070;-68
2022/07/30 00:17:33;;;;;;;;;7.00;7.00;;;;;26.90;36.18;101609.97;5025958;28;44830;-68
2022/07/30 00:19:58;;;;;;;;;5.67;5.67;;;;;26.75;36.36;101612.28;5024677;28;45529;-68
2022/07/30 00:22:23;;;;;;;;;6.00;6.00;;;;;26.78;36.38;101602.59;5026007;28;45256;-68
2022/07/30 00:24:48;;;;;;;;;8.00;7.00;;;;;26.81;36.54;101602.16;5025611;28;45487;-68
2022/07/30 00:27:14;;;;;;;;;7.33;7.33;;;;;26.66;37.37;101600.63;5025099;28;46159;-68
2022/07/30 00:29:39;;;;;;;;;10.33;6.67;;;;;26.64;36.98;101604.72;5025749;28;45698;-68
2022/07/30 00:32:05;;;;;;;;;4.67;4.67;;;;;26.62;36.84;101606.88;5025276;28;45441;-68
2022/07/30 00:34:30;;;;;;;;;5.33;4.00;;;;;26.46;37.67;101613.06;5022594;28;45435;-68
2022/07/30 00:36:55;;;;;;;;;7.00;7.00;;;;;26.37;37.73;101611.72;5021443;28;45330;-67
2022/07/30 00:39:21;;;;;;;;;8.00;7.00;;;;;26.35;37.83;101612.78;5021601;28;45748;-68
2022/07/30 00:41:55;;;;;;;;;5.00;5.00;;;;;26.35;37.76;101607.22;5020207;28;45342;-68
2022/07/30 00:44:20;;;;;;;;;5.33;5.33;;;;;26.48;38.00;101602.56;5022421;28;46315;-68
2022/07/30 00:46:45;;;;;;;;;8.67;6.00;;;;;26.35;38.40;101595.22;5025828;28;45395;-68
2022/07/30 00:49:11;;;;;;;;;6.00;5.33;;;;;26.25;38.39;101595.75;5023015;28;45370;-68
2022/07/30 00:51:36;;;;;;;;;4.00;4.00;;;;;26.27;37.93;101596.38;5026068;28;45240;-68
2022/07/30 00:54:01;;;;;;;;;6.67;6.00;;;;;26.30;38.60;101593.09;5023985;28;46434;-68
2022/07/30 00:56:27;;;;;;;;;7.67;7.00;;;;;26.29;38.34;101591.44;5025149;28;45411;-68
2022/07/30 00:58:52;;;;;;;;;6.33;6.33;;;;;26.02;39.50;101589.94;5017388;28;45415;-68
2022/07/30 01:01:17;;;;;;;;;7.00;7.00;;;;;26.05;39.31;101589.50;5024624;28;45554;-68
2022/07/30 01:03:43;;;;;;;;;5.67;4.33;;;;;26.03;39.83;101590.81;5024107;28;46148;-68
2022/07/30 01:06:08;;;;;;;;;8.33;8.00;;;;;25.90;40.40;101589.88;5020194;28;45192;-68
2022/07/30 01:08:33;;;;;;;;;7.67;7.00;;;;;25.84;40.04;101588.00;5018933;28;45532;-68
2022/07/30 01:10:59;;;;;;;;;8.33;8.00;;;;;25.97;39.78;101595.38;5015956;28;45277;-68
2022/07/30 01:13:24;;;;;;;;;6.00;6.00;;;;;25.96;40.15;101588.09;5024225;28;46121;-68
2022/07/30 01:15:49;;;;;;;;;7.00;7.00;;;;;26.06;39.89;101588.44;5009028;28;45414;-68
2022/07/30 01:18:16;;;;;;;;;7.00;5.67;;;;;26.06;39.65;101593.16;5024145;28;45437;-68
2022/07/30 01:21:00;;;;;;;;;7.33;5.67;;;;;26.04;39.60;101593.38;5010763;28;45462;-68
2022/07/30 01:23:33;;;;;;;;;5.00;5.00;;;;;25.95;39.62;101586.38;5013317;28;46833;-68
2022/07/30 01:26:03;;;;;;;;;6.00;6.00;;;;;26.02;39.97;101587.16;5014668;28;45418;-68
2022/07/30 01:28:32;;;;;;;;;8.00;7.00;;;;;26.02;40.00;101586.31;5020183;28;45626;-68
2022/07/30 01:31:00;;;;;;;;;9.00;9.00;;;;;26.01;39.49;101579.88;5025388;28;45392;-68
2022/07/30 01:33:27;;;;;;;;;8.67;8.00;;;;;26.05;39.64;101578.38;5021675;28;46516;-67
2022/07/30 01:35:53;;;;;;;;;7.00;6.00;;;;;25.99;39.84;101579.28;5023567;28;45300;-68
2022/07/30 01:38:21;;;;;;;;;7.00;7.00;;;;;25.94;40.17;101579.97;5016544;28;45383;-68
2022/07/30 01:40:49;;;;;;;;;6.00;6.00;;;;;26.03;39.33;101588.88;5019540;28;45360;-67
2022/07/30 01:43:17;;;;;;;;;6.00;6.00;;;;;25.91;40.27;101576.81;5024246;28;48329;-67
2022/07/30 01:45:45;;;;;;;;;8.33;7.00;;;;;25.95;40.29;101583.59;5020995;28;45307;-67
2022/07/30 01:48:12;;;;;;;;;7.00;6.00;;;;;25.90;39.99;101592.66;5014265;28;45568;-67
2022/07/30 01:50:43;;;;;;;;;16.00;13.67;;;;;25.72;41.04;101605.66;5024950;28;45319;-67
2022/07/30 01:53:09;;;;;;;;;8.33;7.67;;;;;25.85;40.18;101589.72;5023149;28;46311;-67
2022/07/30 01:55:38;;;;;;;;;7.00;5.67;;;;;25.96;39.75;101594.50;5024593;28;45737;-67
2022/07/30 01:58:05;;;;;;;;;7.00;7.00;;;;;25.93;40.06;101588.56;5023948;28;45457;-67
2022/07/30 02:00:33;;;;;;;;;4.67;4.67;;;;;26.00;40.35;101585.72;5024581;28;45610;-67
2022/07/30 02:02:58;;;;;;;;;6.67;6.00;;;;;26.01;40.13;101587.44;5010731;28;46037;-67
2022/07/30 02:05:26;;;;;;;;;9.00;9.00;;;;;26.00;40.24;101585.72;5022424;28;45381;-67
2022/07/30 02:07:56;;;;;;;;;8.33;8.00;;;;;25.96;39.85;101579.75;5022389;28;45430;-67
2022/07/30 02:10:24;;;;;;;;;6.00;6.00;;;;;25.96;40.81;101582.53;5019887;28;45368;-67
2022/07/30 02:12:55;;;;;;;;;6.00;6.00;;;;;25.84;40.84;101584.38;5020447;28;46849;-67
2022/07/30 02:15:28;;;;;;;;;11.33;6.33;;;;;25.79;40.88;101584.22;5016260;28;45354;-68
2022/07/30 02:17:59;;;;;;;;;7.00;7.00;;;;;25.63;41.87;101585.63;5020834;28;45227;-67
2022/07/30 02:20:28;;;;;;;;;9.33;7.33;;;;;25.48;41.67;101585.94;5021063;28;45464;-67
2022/07/30 02:22:59;;;;;;;;;7.33;7.33;;;;;25.52;41.58;101589.09;5023560;28;45383;-67
2022/07/30 02:25:26;;;;;;;;;4.33;3.00;;;;;25.48;41.58;101588.72;5019240;28;45647;-67
2022/07/30 02:27:56;;;;;;;;;7.00;7.00;;;;;25.41;41.98;101579.56;5020791;28;45277;-67
2022/07/30 02:30:25;;;;;;;;;6.67;6.67;;;;;25.39;42.45;101576.16;5020456;28;45542;-67
2022/07/30 02:32:58;;;;;;;;;9.00;8.00;;;;;25.33;41.78;101574.28;5023513;28;47218;-67
2022/07/30 02:35:25;;;;;;;;;7.67;6.00;;;;;25.27;42.48;101583.53;5016764;28;45586;-67
2022/07/30 02:37:53;;;;;;;;;11.00;9.00;;;;;25.21;42.97;101573.28;5036843;28;45534;-67
2022/07/30 02:40:19;;;;;;;;;9.33;9.33;;;;;25.11;42.89;101576.59;5013472;28;45422;-67
2022/07/30 02:42:48;;;;;;;;;6.67;6.67;;;;;25.11;43.01;101564.59;5022751;28;46783;-67
2022/07/30 02:45:16;;;;;;;;;7.00;7.00;;;;;25.10;42.56;101563.75;5019878;28;45413;-67
2022/07/30 02:47:43;;;;;;;;;7.00;7.00;;;;;24.98;43.39;101560.00;5022333;28;45456;-67
2022/07/30 02:50:11;;;;;;;;;9.00;7.33;;;;;24.99;43.15;101566.38;5023782;28;45579;-67
2022/07/30 02:52:40;;;;;;;;;5.00;5.00;;;;;24.89;42.51;101568.78;5022548;28;45465;-67
2022/07/30 02:55:08;;;;;;;;;6.33;6.33;;;;;24.89;43.11;101566.00;5019703;28;45332;-67
2022/07/30 02:57:34;;;;;;;;;8.33;7.00;;;;;24.81;43.58;101576.28;5008548;28;45410;-66
2022/07/30 03:00:02;;;;;;;;;6.00;6.00;;;;;24.85;43.17;101571.13;5022869;28;45434;-67
2022/07/30 03:02:28;;;;;;;;;6.00;6.00;;;;;24.87;43.05;101574.56;5021389;28;45204;-67
2022/07/30 03:04:56;;;;;;;;;5.00;5.00;;;;;24.78;43.03;101570.31;5017557;28;45487;-67
2022/07/30 03:07:23;;;;;;;;;12.00;7.33;;;;;24.78;44.07;101576.72;5019640;28;45508;-67
2022/07/30 03:09:51;;;;;;;;;8.00;6.33;;;;;24.73;43.61;101581.25;5018193;28;45260;-67
2022/07/30 03:12:18;;;;;;;;;8.00;7.00;;;;;24.71;43.61;101572.28;5016517;28;45359;-67
2022/07/30 03:14:43;;;;;;;;;5.33;5.33;;;;;24.64;44.31;101575.09;5015246;28;45342;-67
2022/07/30 03:17:12;;;;;;;;;12.00;7.00;;;;;24.65;44.31;101582.34;5015291;28;45354;-67
2022/07/30 03:19:40;;;;;;;;;7.00;7.00;;;;;24.58;44.18;101581.53;5014344;28;45525;-67
2022/07/30 03:22:07;;;;;;;;;8.33;6.33;;;;;24.51;44.60;101569.59;5023255;28;46404;-66
2022/07/30 03:24:35;;;;;;;;;8.00;8.00;;;;;24.45;44.79;101567.72;5021636;28;45425;-66
2022/07/30 03:27:02;;;;;;;;;8.00;6.67;;;;;24.36;44.61;101571.78;5021818;28;45456;-66
2022/07/30 03:29:29;;;;;;;;;10.00;7.33;;;;;24.38;44.78;101580.78;5023022;28;45533;-67
2022/07/30 03:31:55;;;;;;;;;6.00;6.00;;;;;24.45;44.82;101576.03;5023087;28;45351;-67
2022/07/30 03:34:22;;;;;;;;;10.00;7.00;;;;;24.27;45.35;101573.09;5019118;28;45510;-67
2022/07/30 03:36:48;;;;;;;;;8.00;7.00;;;;;24.29;45.46;101579.28;5021183;28;45455;-67
2022/07/30 03:39:15;;;;;;;;;5.67;5.67;;;;;24.29;44.38;101571.81;5019662;28;45477;-68
2022/07/30 03:41:42;;;;;;;;;5.00;5.00;;;;;24.37;44.66;101576.28;5018459;28;45343;-67
2022/07/30 03:44:08;;;;;;;;;6.00;6.00;;;;;24.36;44.82;101580.13;5022078;28;45322;-66
2022/07/30 03:46:35;;;;;;;;;7.33;6.00;;;;;24.29;45.10;101576.53;5022948;28;45477;-66
2022/07/30 03:49:01;;;;;;;;;7.33;7.00;;;;;24.28;45.27;101580.38;5018751;28;45450;-66
2022/07/30 03:51:27;;;;;;;;;6.67;6.67;;;;;24.23;44.63;101578.25;5020480;28;46731;-66
2022/07/30 03:53:53;;;;;;;;;6.00;6.00;;;;;24.28;44.03;101580.38;5016031;28;45200;-66
2022/07/30 03:56:19;;;;;;;;;6.33;6.33;;;;;24.33;43.86;101584.19;5022590;28;45488;-67
2022/07/30 03:58:45;;;;;;;;;7.33;7.00;;;;;24.29;44.58;101587.63;5022675;28;45431;-67
2022/07/30 04:01:10;;;;;;;;;10.33;5.67;;;;;24.27;44.75;101589.75;5022650;28;45430;-67
2022/07/30 04:03:36;;;;;;;;;8.00;8.00;;;;;24.25;44.66;101583.59;5019508;28;45491;-66
2022/07/30 04:06:01;;;;;;;;;7.33;7.33;;;;;24.31;44.36;101575.25;5021199;28;46672;-67
2022/07/30 04:08:27;;;;;;;;;6.33;5.33;;;;;24.34;44.94;101585.03;5020753;28;45326;-66
2022/07/30 04:10:52;;;;;;;;;7.00;5.00;;;;;24.30;44.82;101583.78;5019866;28;46912;-67
2022/07/30 04:13:19;;;;;;;;;6.33;6.00;;;;;24.19;44.69;101582.50;5022167;28;45274;-67
2022/07/30 04:16:08;;;;;;;;;8.33;7.00;;;;;24.16;45.26;101587.63;5013170;28;45241;-67
2022/07/30 04:18:37;;;;;;;;;9.33;7.00;;;;;24.17;45.05;101592.97;5018378;28;45363;-67
2022/07/30 04:21:07;;;;;;;;;6.00;6.00;;;;;24.21;45.06;101590.63;5015222;28;45483;-67
2022/07/30 04:23:32;;;;;;;;;7.00;7.00;;;;;24.31;44.63;101588.28;5020534;28;45398;-67
2022/07/30 04:26:00;;;;;;;;;8.33;8.00;;;;;24.29;45.04;101590.41;5013162;28;45137;-66
2022/07/30 04:28:26;;;;;;;;;6.00;6.00;;;;;24.29;44.83;101605.16;5022152;28;45430;-67
2022/07/30 04:30:53;;;;;;;;;6.00;6.00;;;;;24.30;45.04;101597.66;5022306;28;45330;-67
2022/07/30 04:33:18;;;;;;;;;10.33;8.67;;;;;24.25;44.76;101603.03;5020440;28;45546;-67
2022/07/30 04:35:43;;;;;;;;;9.00;7.33;;;;;24.23;45.25;101594.06;5020467;28;45346;-66
2022/07/30 04:38:09;;;;;;;;;9.00;9.00;;;;;24.23;45.18;101599.63;5017062;28;45543;-67
2022/07/30 04:40:34;;;;;;;;;15.00;13.00;;;;;24.17;45.29;101603.22;5021029;28;47327;-66
2022/07/30 04:43:00;;;;;;;;;8.00;8.00;;;;;24.13;44.72;101597.25;5016545;28;45141;-67
2022/07/30 04:45:25;;;;;;;;;7.00;7.00;;;;;24.01;45.03;101591.50;5022267;28;45272;-67
2022/07/30 04:47:52;;;;;;;;;9.67;8.33;;;;;23.96;45.50;101588.50;5020352;28;45532;-66
2022/07/30 04:50:22;;;;;;;;;8.00;8.00;;;;;24.19;45.34;101598.28;5021398;28;45652;-66
2022/07/30 04:52:47;;;;;;;;;7.33;7.33;;;;;24.24;44.82;101591.06;5020834;28;45422;-67
2022/07/30 04:55:14;;;;;;;;;9.33;7.00;;;;;24.28;45.25;101597.03;5017635;28;45402;-67
2022/07/30 04:57:41;;;;;;;;;14.67;10.67;;;;;24.20;45.73;101594.47;5021428;28;45561;-66
2022/07/30 05:00:07;;;;;;;;;8.67;5.00;;;;;24.16;45.01;101598.75;5021493;28;45356;-66
2022/07/30 05:02:36;;;;;;;;;11.33;8.33;;;;;24.14;45.63;101607.28;5021026;28;45454;-66
2022/07/30 05:05:03;;;;;;;;;7.67;7.67;;;;;24.20;45.43;101608.38;5025487;28;45490;-66
2022/07/30 05:07:30;;;;;;;;;9.00;8.00;;;;;24.27;45.41;101600.88;5024581;28;45391;-66
2022/07/30 05:09:56;;;;;;;;;9.00;8.00;;;;;24.30;45.49;101595.75;5023007;28;46043;-67
2022/07/30 05:12:31;;;;;;;;;7.67;7.67;;;;;24.31;44.66;101602.16;5021884;28;45414;-67
2022/07/30 05:14:56;;;;;;;;;9.33;8.00;;;;;24.38;44.91;101612.19;5021518;28;45343;-65
2022/07/30 05:17:22;;;;;;;;;6.00;6.00;;;;;24.41;44.85;101619.19;5020600;28;45284;-67
2022/07/30 05:19:47;;;;;;;;;5.67;5.67;;;;;24.49;44.14;101620.88;5018910;28;46366;-67
2022/07/30 05:22:12;;;;;;;;;9.67;8.00;;;;;24.62;43.60;101605.00;5018453;28;45251;-67
2022/07/30 05:24:38;;;;;;;;;8.67;5.67;;;;;25.02;42.22;101611.28;5022299;28;45441;-66
2022/07/30 05:27:03;;;;;;;;;5.67;5.67;;;;;25.50;41.30;101594.03;5025138;28;45600;-66
2022/07/30 05:29:28;;;;;;;;;6.67;6.67;;;;;25.68;41.10;101615.56;5024352;28;45427;-66
2022/07/30 05:31:54;;;;;;;;;5.00;5.00;;;;;25.30;41.50;101613.66;5024651;28;45226;-66
2022/07/30 05:34:19;;;;;;;;;6.67;6.67;;;;;25.15;41.38;101616.75;5023037;28;45512;-66
2022/07/30 05:36:44;;;;;;;;;9.33;5.00;;;;;25.13;41.89;101626.41;5022891;28;45582;-67
2022/07/30 05:39:10;;;;;;;;;9.00;7.00;;;;;25.15;41.85;101613.97;5020607;28;45446;-66
2022/07/30 05:41:35;;;;;;;;;7.33;5.67;;;;;25.29;41.59;101627.78;5020312;28;45430;-66
2022/07/30 05:44:01;;;;;;;;;7.33;6.33;;;;;25.42;40.69;101623.00;5023093;28;45416;-66
2022/07/30 05:46:26;;;;;;;;;6.00;5.00;;;;;25.51;40.82;101621.63;5024949;28;45414;-66
2022/07/30 05:48:52;;;;;;;;;5.33;5.33;;;;;25.58;40.78;101622.47;5016082;28;47519;-66
2022/07/30 05:51:19;;;;;;;;;6.00;6.00;;;;;25.67;40.09;101633.31;5022343;28;45509;-66
2022/07/30 05:53:45;;;;;;;;;6.33;6.33;;;;;25.70;41.02;101635.69;5024172;28;45386;-67
2022/07/30 05:56:10;;;;;;;;;6.33;6.33;;;;;25.67;40.20;101634.19;5021379;28;45320;-67
2022/07/30 05:58:35;;;;;;;;;6.67;6.67;;;;;25.67;40.54;101619.41;5023625;28;46024;-67
2022/07/30 06:01:01;;;;;;;;;4.00;4.00;;;;;25.86;39.51;101623.97;5019443;28;45316;-66
2022/07/30 06:03:26;;;;;;;;;8.33;8.00;;;;;25.94;40.06;101621.72;5024216;28;45407;-66
2022/07/30 06:05:51;;;;;;;;;9.00;8.67;;;;;25.96;39.80;101629.84;5017017;28;45261;-66
2022/07/30 06:08:17;;;;;;;;;5.00;5.00;;;;;26.05;39.66;101628.50;5017692;28;47768;-67
2022/07/30 06:10:42;;;;;;;;;7.33;6.67;;;;;26.14;39.86;101624.34;5018679;28;45626;-67
2022/07/30 06:13:08;;;;;;;;;8.00;6.67;;;;;26.27;39.20;101637.31;5020573;28;45425;-67
2022/07/30 06:15:33;;;;;;;;;6.67;6.33;;;;;26.27;39.02;101638.16;5017282;28;45537;-67
2022/07/30 06:17:58;;;;;;;;;8.33;8.33;;;;;26.28;39.75;101636.22;5023215;28;45433;-66
2022/07/30 06:20:24;;;;;;;;;6.67;6.00;;;;;26.32;39.26;101635.53;5015499;28;45354;-67
2022/07/30 06:22:49;;;;;;;;;7.67;6.00;;;;;26.34;39.04;101638.09;5023628;28;45850;-67
2022/07/30 06:25:14;;;;;;;;;6.33;6.00;;;;;26.28;39.12;101637.09;5032537;28;45350;-67
2022/07/30 06:27:39;;;;;;;;;7.00;7.00;;;;;26.43;38.65;101645.06;5021553;28;52120;-67
2022/07/30 06:30:07;;;;;;;;;5.67;5.67;;;;;26.38;38.41;101646.81;5023079;28;45370;-67
2022/07/30 06:32:33;;;;;;;;;6.00;6.00;;;;;26.60;38.83;101642.50;5023434;28;45306;-67
2022/07/30 06:34:59;;;;;;;;;8.00;8.00;;;;;26.54;38.88;101654.56;5017485;28;45324;-68
2022/07/30 06:37:25;;;;;;;;;3.00;1.00;;;;;26.55;38.99;101656.28;5023284;28;45187;-67
2022/07/30 06:39:50;;;;;;;;;5.33;5.00;;;;;26.87;38.33;101654.19;5016192;28;45326;-66
2022/07/30 06:42:16;;;;;;;;;5.00;5.00;;;;;27.14;37.82;101661.13;5021627;28;45181;-66
2022/07/30 06:44:41;;;;;;;;;7.67;7.00;;;;;27.28;37.67;101661.81;5022210;28;45783;-66
2022/07/30 06:47:07;;;;;;;;;7.33;6.00;;;;;27.25;37.55;101656.72;5023269;28;46684;-66
2022/07/30 06:49:34;;;;;;;;;8.33;7.00;;;;;27.15;37.96;101662.00;5020586;28;45371;-66
2022/07/30 06:51:59;;;;;;;;;7.33;7.33;;;;;27.13;37.91;101671.44;5013250;28;45491;-66
2022/07/30 06:54:25;;;;;;;;;10.33;10.33;;;;;27.05;37.91;101673.69;5022415;28;45386;-66
2022/07/30 06:56:50;;;;;;;;;9.00;9.00;;;;;26.82;38.75;101666.03;5015778;28;46676;-66
2022/07/30 06:59:16;;;;;;;;;7.00;5.67;;;;;26.93;38.91;101670.88;5022462;28;45268;-66
2022/07/30 07:01:41;;;;;;;;;8.00;6.33;;;;;27.18;37.94;101676.31;5023473;28;45322;-66
2022/07/30 07:04:07;;;;;;;;;6.00;6.00;;;;;27.27;38.05;101668.47;5021693;28;45375;-66
2022/07/30 07:06:32;;;;;;;;;7.33;7.33;;;;;27.56;37.45;101669.56;5025674;28;45682;-66
2022/07/30 07:08:58;;;;;;;;;6.00;5.00;;;;;27.79;37.28;101669.63;5016651;28;45442;-66
2022/07/30 07:11:23;;;;;;;;;9.00;7.00;;;;;27.78;37.21;101679.94;5018265;28;45251;-66
2022/07/30 07:13:49;;;;;;;;;8.00;8.00;;;;;27.86;36.94;101674.03;5020666;28;45410;-66
2022/07/30 07:16:15;;;;;;;;;6.67;6.67;;;;;27.76;37.02;101676.53;5014614;28;45251;-66
2022/07/30 07:18:40;;;;;;;;;8.00;7.00;;;;;27.46;37.33;101681.31;5020088;28;45447;-66
2022/07/30 07:21:07;;;;;;;;;7.00;7.00;;;;;27.57;37.33;101683.28;5010606;28;45311;-66
2022/07/30 07:23:32;;;;;;;;;8.00;8.00;;;;;27.49;37.71;101683.59;5021431;28;45323;-66
2022/07/30 07:25:58;;;;;;;;;7.00;7.00;;;;;27.78;36.87;101684.69;5012738;28;45363;-66
2022/07/30 07:28:23;;;;;;;;;7.00;7.00;;;;;27.87;36.77;101678.50;5019528;28;45353;-66
2022/07/30 07:30:48;;;;;;;;;7.00;7.00;;;;;28.17;36.55;101683.19;5021606;28;45456;-66
2022/07/30 07:33:14;;;;;;;;;7.67;7.67;;;;;28.47;35.91;101675.53;5022590;28;45339;-66
2022/07/30 07:35:39;;;;;;;;;5.67;5.67;;;;;28.65;35.79;101678.19;5022409;28;45569;-66
2022/07/30 07:38:05;;;;;;;;;13.00;10.00;;;;;28.05;36.02;101682.31;5021606;28;45256;-66
2022/07/30 07:40:30;;;;;;;;;7.00;7.00;;;;;27.93;36.53;101667.47;5021704;28;45501;-66
2022/07/30 07:42:55;;;;;;;;;10.67;8.67;;;;;27.95;36.59;101665.28;5021617;28;45592;-66
2022/07/30 07:45:21;;;;;;;;;9.67;8.00;;;;;28.00;36.57;101666.25;5021881;28;46408;-66
2022/07/30 07:47:48;;;;;;;;;8.33;8.33;;;;;28.30;36.50;101671.78;5022352;28;45362;-66
2022/07/30 07:50:15;;;;;;;;;12.33;8.00;;;;;28.47;35.80;101672.75;5020659;28;45356;-66
2022/07/30 07:52:40;;;;;;;;;7.67;6.67;;;;;28.80;35.11;101663.72;5020037;28;45358;-66
2022/07/30 07:55:06;;;;;;;;;7.00;7.00;;;;;29.13;35.02;101667.75;5019227;28;45973;-66
2022/07/30 07:57:39;;;;;;;;;9.33;8.00;;;;;29.14;34.49;101675.06;5024297;28;45545;-66
2022/07/30 08:00:06;;;;;;;;;9.67;6.33;;;;;28.93;34.47;101676.59;5021197;28;45339;-66
2022/07/30 08:02:31;;;;;;;;;8.00;7.00;;;;;28.65;34.67;101680.97;5022183;28;45216;-66
2022/07/30 08:04:57;;;;;;;;;8.00;8.00;;;;;28.69;34.64;101675.75;5020581;28;46517;-66
2022/07/30 08:07:22;;;;;;;;;7.00;5.67;;;;;29.04;34.60;101676.53;5019483;28;45192;-66
2022/07/30 08:09:47;;;;;;;;;7.00;7.00;;;;;29.37;34.09;101666.56;5018127;28;45262;-66
2022/07/30 08:12:13;;;;;;;;;10.00;9.00;;;;;29.56;33.68;101667.22;5018387;28;45359;-66
2022/07/30 08:14:38;;;;;;;;;9.00;7.33;;;;;29.29;33.79;101664.16;5016471;28;45607;-67
2022/07/30 08:17:04;;;;;;;;;7.33;7.00;;;;;29.34;34.30;101669.84;5016858;28;45342;-68
2022/07/30 08:19:29;;;;;;;;;8.67;8.67;;;;;29.61;33.33;101670.09;5014896;28;45433;-68
2022/07/30 08:21:54;;;;;;;;;7.00;7.00;;;;;30.05;32.09;101657.16;5019685;28;45327;-68
2022/07/30 08:24:20;;;;;;;;;8.00;8.00;;;;;30.15;32.16;101657.34;5017562;28;46825;-67
2022/07/30 08:26:46;;;;;;;;;9.67;8.00;;;;;30.07;32.47;101657.75;5012311;28;45371;-66
2022/07/30 08:29:11;;;;;;;;;8.33;8.33;;;;;30.00;32.31;101662.69;5019702;28;45329;-67
2022/07/30 08:31:36;;;;;;;;;8.33;8.33;;;;;29.73;32.69;101666.13;5022418;28;45327;-67
2022/07/30 08:34:02;;;;;;;;;10.67;7.67;;;;;30.03;32.36;101677.03;5021346;28;46425;-65
2022/07/30 08:36:27;;;;;;;;;7.67;6.67;;;;;29.85;32.06;101670.81;5021993;28;45373;-66
2022/07/30 08:38:52;;;;;;;;;7.67;7.00;;;;;29.50;32.71;101677.47;5026097;28;45484;-67
2022/07/30 08:41:19;;;;;;;;;6.00;6.00;;;;;29.83;32.46;101679.47;5025856;28;45745;-66
2022/07/30 08:43:48;;;;;;;;;6.67;5.00;;;;;30.23;31.90;101670.94;5022551;28;47185;-66
2022/07/30 08:46:16;;;;;;;;;6.33;6.33;;;;;30.36;31.43;101675.31;5025603;28;45395;-65
2022/07/30 08:48:42;;;;;;;;;8.67;7.33;;;;;29.98;31.94;101678.91;5024676;28;45422;-65
2022/07/30 08:51:08;;;;;;;;;10.33;8.00;;;;;29.77;31.97;101683.28;5025795;28;45422;-65
2022/07/30 08:53:34;;;;;;;;;7.00;6.00;;;;;29.92;31.40;101675.16;5025106;28;45522;-67
2022/07/30 08:56:00;;;;;;;;;10.33;10.33;;;;;30.25;30.77;101677.09;5021648;28;45240;-67
2022/07/30 08:58:29;;;;;;;;;7.67;7.33;;;;;30.26;31.20;101681.59;5025051;28;45294;-64
2022/07/30 09:00:55;;;;;;;;;16.67;14.67;;;;;30.38;31.23;101678.72;5019357;28;45533;-66
2022/07/30 09:03:21;;;;;;;;;8.00;7.00;;;;;30.71;30.54;101681.47;5023603;28;47317;-66
2022/07/30 09:05:46;;;;;;;;;8.00;8.00;;;;;31.00;30.21;101684.09;5025358;28;45395;-66
2022/07/30 09:08:12;;;;;;;;;8.00;6.00;;;;;30.88;30.43;101661.78;5025176;28;45326;-66
2022/07/30 09:10:37;;;;;;;;;8.67;7.00;;;;;31.32;29.84;101671.88;5025334;28;45377;-66
2022/07/30 09:13:02;;;;;;;;;8.00;8.00;;;;;31.84;29.53;101678.88;5024570;28;46888;-66
2022/07/30 09:15:28;;;;;;;;;6.67;6.67;;;;;32.01;29.57;101682.41;5021861;28;45395;-66
2022/07/30 09:18:01;;;;;;;;;10.33;10.00;;;;;32.20;28.29;101675.28;5024894;28;45558;-67
2022/07/30 09:20:30;;;;;;;;;6.67;6.67;;;;;32.02;29.38;101690.56;5020424;28;45509;-67
2022/07/30 09:22:58;;;;;;;;;7.67;7.67;;;;;32.02;28.58;101682.13;5010544;28;46256;-67
2022/07/30 09:25:33;;;;;;;;;9.00;7.00;;;;;31.96;28.59;101685.16;5017802;28;45454;-67
2022/07/30 09:27:58;;;;;;;;;6.00;6.00;;;;;31.91;29.07;101683.19;5024009;28;45686;-67
2022/07/30 09:30:24;;;;;;;;;9.00;7.67;;;;;32.13;28.47;101691.50;5018195;28;45407;-67
2022/07/30 09:32:50;;;;;;;;;10.00;7.33;;;;;32.26;29.30;101682.63;5019728;28;46978;-67
2022/07/30 09:35:17;;;;;;;;;6.00;5.67;;;;;32.67;27.84;101680.06;5022794;28;45421;-67
2022/07/30 09:37:43;;;;;;;;;8.33;5.67;;;;;32.78;26.92;101690.31;5024541;28;45501;-67
2022/07/30 09:40:16;;;;;;;;;5.00;5.00;;;;;32.75;26.96;101688.03;5038810;28;45401;-67
2022/07/30 09:42:43;;;;;;;;;8.00;8.00;;;;;32.74;27.43;101686.31;5023869;28;46557;-67
2022/07/30 09:45:11;;;;;;;;;7.67;6.67;;;;;32.88;27.62;101692.34;5021069;28;45628;-67
2022/07/30 09:47:40;;;;;;;;;5.33;5.33;;;;;32.89;27.70;101680.78;5023220;28;45473;-67
2022/07/30 09:50:08;;;;;;;;;5.00;5.00;;;;;33.17;26.77;101685.09;5024881;28;45458;-66
2022/07/30 09:52:36;;;;;;;;;4.67;4.67;;;;;33.04;26.38;101689.28;5023009;28;46209;-68
2022/07/30 09:55:01;;;;;;;;;6.33;4.67;;;;;33.63;26.10;101686.94;5018815;28;45404;-69
2022/07/30 09:57:27;;;;;;;;;7.00;7.00;;;;;34.27;24.89;101689.28;5022280;28;45236;-69
2022/07/30 09:59:54;;;;;;;;;4.00;4.00;;;;;33.95;25.24;101683.06;5024805;28;45487;-68
2022/07/30 10:02:20;;;;;;;;;5.67;4.00;;;;;34.02;25.16;101686.44;5024349;28;45300;-67
2022/07/30 10:04:45;;;;;;;;;4.00;4.00;;;;;34.34;24.82;101688.97;5023334;28;45468;-68
2022/07/30 10:07:20;;;;;;;;;8.00;7.00;;;;;34.51;24.51;101681.06;5022648;28;45487;-68
2022/07/30 10:09:47;;;;;;;;;5.00;4.67;;;;;34.60;23.98;101682.16;5039228;28;45712;-68
2022/07/30 10:12:14;;;;;;;;;5.33;5.33;;;;;34.88;24.41;101679.84;5023774;28;45414;-68
2022/07/30 10:14:44;;;;;;;;;7.00;5.33;;;;;35.46;24.15;101680.97;5017427;28;45429;-67
2022/07/30 10:17:10;;;;;;;;;5.00;5.00;;;;;36.02;22.77;101675.75;5018001;28;45281;-67
2022/07/30 10:19:36;;;;;;;;;5.00;5.00;;;;;36.14;22.41;101684.72;5023840;28;45335;-67
2022/07/30 10:22:02;;;;;;;;;5.67;5.00;;;;;35.69;22.20;101682.25;5015562;28;45355;-67
2022/07/30 10:24:30;;;;;;;;;7.00;5.33;;;;;35.93;21.81;101676.72;5022499;28;45467;-67
2022/07/30 10:26:56;;;;;;;;;4.00;3.00;;;;;35.97;21.90;101681.47;5019316;28;45288;-67
2022/07/30 10:29:22;;;;;;;;;4.33;4.33;;;;;35.59;21.47;101673.81;5022878;28;45698;-67
2022/07/30 10:31:49;;;;;;;;;6.67;4.00;;;;;36.03;21.72;101670.94;5018864;28;46392;-67
2022/07/30 10:34:17;;;;;;;;;4.33;4.33;;;;;34.94;22.74;101675.84;5019946;28;45431;-67
2022/07/30 10:36:47;;;;;;;;;3.67;3.67;;;;;34.87;22.72;101661.19;5033039;28;45332;-67
2022/07/30 10:39:22;;;;;;;;;5.00;5.00;;;;;35.92;21.99;101667.38;5023131;28;45511;-67
2022/07/30 10:42:29;;;;;;;;;4.67;4.67;;;;;36.52;21.28;101662.31;5023671;28;46213;-67
2022/07/30 10:45:35;;;;;;;;;3.00;3.00;;;;;36.86;21.95;101656.53;5027844;28;45361;-67
2022/07/30 10:48:03;;;;;;;;;5.33;4.33;;;;;36.86;20.99;101657.38;5009163;28;45325;-67
2022/07/30 10:50:28;;;;;;;;;4.00;4.00;;;;;36.95;21.23;101654.72;5024431;28;45359;-67
2022/07/30 10:53:00;;;;;;;;;6.00;6.00;;;;;36.44;21.41;101665.78;5022948;28;45444;-67
2022/07/30 10:55:32;;;;;;;;;9.00;9.00;;;;;36.77;21.29;101664.84;5023806;28;45346;-67
2022/07/30 10:58:06;;;;;;;;;12.75;12.75;;;;;37.40;20.91;101661.78;5022984;28;45168;-67
2022/07/30 11:00:53;;;;;;;;;8.67;8.00;;;;;37.72;20.56;101655.31;5020980;28;45561;-67
2022/07/30 11:03:27;;;;;;;;;5.33;5.00;;;;;36.98;20.81;101656.94;5022587;28;45322;-67
2022/07/30 11:06:18;;;;;;;;;4.33;4.33;;;;;36.74;21.16;101665.47;5012500;28;45378;-67
2022/07/30 11:08:44;;;;;;;;;7.25;7.25;;;;;36.73;21.04;101654.44;5010800;28;45348;-66
2022/07/30 11:11:22;;;;;;;;;6.33;5.33;;;;;36.63;21.32;101658.19;5010927;28;45385;-66
2022/07/30 11:14:01;;;;;;;;;5.00;5.00;;;;;36.88;21.42;101649.44;5018932;28;46583;-67
2022/07/30 11:16:32;;;;;;;;;5.33;5.00;;;;;36.86;21.43;101653.69;5019463;28;45311;-67
2022/07/30 11:19:00;;;;;;;;;37.75;33.75;;;;;37.36;20.89;101655.84;5022623;28;45757;-67
2022/07/30 11:21:26;;;;;;;;;13.00;10.75;;;;;37.57;20.33;101655.53;5022308;28;45387;-66
2022/07/30 11:23:52;;;;;;;;;7.00;7.00;;;;;36.72;20.60;101647.94;5022586;28;46298;-66